createdAt,value
2023-02-26T00:00:45.401Z,7.68
2023-02-26T00:10:48.048Z,8.30
2023-02-26T00:20:49.380Z,9.65
2023-02-26T00:30:50.606Z,7.70
2023-02-26T00:40:54.178Z,6.57
2023-02-26T00:50:56.596Z,5.53
2023-02-26T01:00:57.846Z,7.13
2023-02-26T01:10:59.238Z,6.05
2023-02-26T01:21:00.468Z,5.00
2023-02-26T01:31:01.880Z,4.82
2023-02-26T01:41:03.296Z,5.80
2023-02-26T01:51:04.570Z,6.10
2023-02-26T02:01:05.852Z,7.68
2023-02-26T02:11:07.264Z,7.53
2023-02-26T02:21:08.474Z,7.80
2023-02-26T02:31:09.848Z,5.07
2023-02-26T02:41:11.280Z,10.10
2023-02-26T02:51:12.670Z,8.48
2023-02-26T03:01:13.950Z,9.68
2023-02-26T03:11:15.389Z,5.38
2023-02-26T03:21:16.637Z,7.32
2023-02-26T03:31:18.098Z,9.80
2023-02-26T03:41:19.435Z,6.55
2023-02-26T03:51:20.705Z,7.15
2023-02-26T04:01:21.977Z,6.70
2023-02-26T04:11:23.335Z,8.52
2023-02-26T04:21:24.648Z,7.25
2023-02-26T04:31:25.903Z,6.93
2023-02-26T04:41:27.133Z,7.80
2023-02-26T04:51:28.554Z,13.85
2023-02-26T05:01:32.128Z,6.25
2023-02-26T05:11:36.304Z,8.93
2023-02-26T05:21:37.547Z,9.65
2023-02-26T05:31:38.817Z,8.05
2023-02-26T05:41:40.122Z,10.32
2023-02-26T05:51:42.982Z,9.15
2023-02-26T06:01:44.361Z,7.13
2023-02-26T06:11:45.946Z,8.90
2023-02-26T06:21:47.173Z,14.25
2023-02-26T06:31:48.528Z,10.55
2023-02-26T06:41:49.807Z,6.28
2023-02-26T06:51:51.031Z,12.57
2023-02-26T07:01:52.402Z,7.40
2023-02-26T07:11:55.474Z,18.00
2023-02-26T07:21:56.756Z,7.83
2023-02-26T07:31:58.103Z,11.73
2023-02-26T07:41:59.392Z,9.93
2023-02-26T07:52:00.593Z,12.30
2023-02-26T08:02:02.083Z,12.18
2023-02-26T08:12:03.933Z,14.32
2023-02-26T08:22:05.168Z,10.40
2023-02-26T08:32:06.600Z,11.05
2023-02-26T08:42:07.893Z,10.77
2023-02-26T08:52:09.232Z,10.43
2023-02-26T09:02:13.465Z,8.20
2023-02-26T09:12:17.067Z,10.40
2023-02-26T09:22:18.285Z,8.97
2023-02-26T09:32:19.696Z,10.23
2023-02-26T09:42:21.052Z,10.13
2023-02-26T09:52:22.283Z,11.13
2023-02-26T10:02:23.574Z,7.68
2023-02-26T10:12:25.040Z,5.93
2023-02-26T10:22:26.273Z,6.70
2023-02-26T10:32:27.648Z,8.30
2023-02-26T10:42:29.003Z,5.25
2023-02-26T10:52:30.214Z,8.48
2023-02-26T11:02:31.451Z,5.28
2023-02-26T11:12:32.940Z,9.73
2023-02-26T11:22:34.316Z,5.63
2023-02-26T11:32:35.546Z,3.58
2023-02-26T11:42:36.799Z,6.65
2023-02-26T11:52:38.031Z,6.78
2023-02-26T12:02:39.349Z,4.45
2023-02-26T12:12:43.617Z,2.22
2023-02-26T12:22:44.963Z,2.00
2023-02-26T12:32:46.297Z,2.05
2023-02-26T12:42:47.535Z,2.95
2023-02-26T12:52:50.094Z,4.03
2023-02-26T13:02:51.529Z,4.95
2023-02-26T13:12:54.986Z,2.65
2023-02-26T13:22:56.500Z,1.73
2023-02-26T13:32:57.845Z,4.20
2023-02-26T13:42:59.083Z,5.10
2023-02-26T13:53:00.349Z,2.47
2023-02-26T14:03:01.834Z,5.10
2023-02-26T14:13:03.217Z,4.75
2023-02-26T14:23:04.433Z,2.45
2023-02-26T14:33:05.817Z,3.22
2023-02-26T14:43:07.115Z,4.47
2023-02-26T14:53:08.334Z,3.20
2023-02-26T15:03:09.594Z,3.17
2023-02-26T15:13:12.085Z,2.17
2023-02-26T15:23:13.380Z,3.08
2023-02-26T15:33:16.336Z,3.53
2023-02-26T15:43:17.573Z,4.10
2023-02-26T15:53:19.299Z,3.47
2023-02-26T16:03:20.552Z,2.83
2023-02-26T16:13:21.902Z,7.13
2023-02-26T16:23:23.167Z,2.75
2023-02-26T16:33:24.396Z,2.85
2023-02-26T16:43:25.717Z,4.32
2023-02-26T16:53:26.914Z,7.88
2023-02-26T17:03:28.239Z,5.20
2023-02-26T17:13:29.721Z,5.60
2023-02-26T17:23:31.105Z,7.07
2023-02-26T17:33:32.369Z,4.40
2023-02-26T17:43:33.608Z,5.38
2023-02-26T17:53:40.882Z,2.92
2023-02-26T18:03:43.344Z,6.35
2023-02-26T18:13:44.663Z,5.25
2023-02-26T18:23:45.876Z,4.30
2023-02-26T18:33:47.196Z,2.65
2023-02-26T18:43:48.401Z,3.40
2023-02-26T18:53:49.649Z,2.35
2023-02-26T19:03:50.929Z,5.15
2023-02-26T19:13:52.629Z,3.85
2023-02-26T19:23:54.181Z,4.63
2023-02-26T19:33:55.444Z,4.90
2023-02-26T19:43:56.728Z,4.03
2023-02-26T19:53:57.954Z,4.80
2023-02-26T20:03:59.238Z,2.50
2023-02-26T20:14:01.902Z,5.68
2023-02-26T20:24:03.221Z,3.97
2023-02-26T20:34:05.118Z,3.53
2023-02-26T20:44:06.362Z,9.55
2023-02-26T20:54:07.649Z,5.82
2023-02-26T21:04:08.946Z,4.72
2023-02-26T21:14:10.535Z,4.70
2023-02-26T21:24:11.844Z,4.28
2023-02-26T21:34:32.722Z,6.93
2023-02-26T21:44:34.425Z,4.10
2023-02-26T21:54:35.771Z,5.75
2023-02-26T22:04:37.048Z,4.07
2023-02-26T22:14:38.339Z,3.05
2023-02-26T22:24:40.981Z,3.83
2023-02-26T22:34:43.315Z,3.75
2023-02-26T22:44:45.959Z,6.53
2023-02-26T22:54:47.234Z,6.75
2023-02-26T23:04:48.500Z,2.40
2023-02-26T23:14:49.760Z,6.32
2023-02-26T23:24:50.954Z,4.03
2023-02-26T23:34:52.169Z,2.55
2023-02-26T23:44:53.562Z,4.00
2023-02-26T23:54:56.634Z,5.70
